createdAt,value
2022-08-27T00:01:56.248Z,56.10
2022-08-27T00:07:01.820Z,56.00
2022-08-27T00:12:08.118Z,56.00
2022-08-27T00:17:12.208Z,55.90
2022-08-27T00:22:17.247Z,55.90
2022-08-27T00:27:20.813Z,55.70
2022-08-27T00:32:24.620Z,55.80
2022-08-27T00:37:29.565Z,55.60
2022-08-27T00:42:33.479Z,55.60
2022-08-27T00:47:45.840Z,55.50
2022-08-27T00:52:57.881Z,55.50
2022-08-27T00:58:27.545Z,55.40
2022-08-27T01:03:31.943Z,55.50
2022-08-27T01:08:45.447Z,55.40
2022-08-27T01:14:00.426Z,55.60
2022-08-27T01:19:26.853Z,55.60
2022-08-27T01:24:39.831Z,55.60
2022-08-27T01:29:44.341Z,56.10
2022-08-27T01:34:49.073Z,55.60
2022-08-27T01:39:58.968Z,55.30
2022-08-27T01:45:08.489Z,55.40
2022-08-27T01:50:18.496Z,55.30
2022-08-27T01:55:27.388Z,55.40
2022-08-27T02:00:36.662Z,55.30
2022-08-27T02:05:44.807Z,55.40
2022-08-27T02:10:51.688Z,55.30
2022-08-27T02:15:56.007Z,55.50
2022-08-27T02:20:59.649Z,55.60
2022-08-27T02:26:04.788Z,55.40
2022-08-27T02:31:08.589Z,55.30
2022-08-27T02:36:13.846Z,55.50
2022-08-27T02:41:19.353Z,55.40
2022-08-27T02:46:22.954Z,55.30
2022-08-27T02:51:26.519Z,55.50
2022-08-27T02:56:31.971Z,55.40
2022-08-27T03:01:36.960Z,55.10
2022-08-27T03:06:41.417Z,55.10
2022-08-27T03:11:46.517Z,55.20
2022-08-27T03:16:50.118Z,55.00
2022-08-27T03:21:54.421Z,55.00
2022-08-27T03:26:59.972Z,55.30
2022-08-27T03:32:07.006Z,55.00
2022-08-27T03:37:10.409Z,55.10
2022-08-27T03:42:15.480Z,55.00
2022-08-27T03:47:19.876Z,55.00
2022-08-27T03:52:23.676Z,55.00
2022-08-27T03:57:28.838Z,55.10
2022-08-27T04:02:32.755Z,55.00
2022-08-27T04:07:36.424Z,54.90
2022-08-27T04:12:41.924Z,55.00
2022-08-27T04:17:45.552Z,54.90
2022-08-27T04:22:49.360Z,54.90
2022-08-27T04:27:54.718Z,54.90
2022-08-27T04:32:58.387Z,54.80
2022-08-27T04:38:01.967Z,54.80
2022-08-27T04:43:06.953Z,54.90
2022-08-27T04:48:10.622Z,54.80
2022-08-27T04:53:17.162Z,54.70
2022-08-27T04:58:26.208Z,54.60
2022-08-27T05:03:30.699Z,54.50
2022-08-27T05:08:35.615Z,54.50
2022-08-27T05:13:40.940Z,54.20
2022-08-27T05:18:47.949Z,54.10
2022-08-27T05:23:54.346Z,53.90
2022-08-27T05:29:00.824Z,53.80
2022-08-27T05:34:10.226Z,53.80
2022-08-27T05:39:14.273Z,53.60
2022-08-27T05:44:40.273Z,53.60
2022-08-27T05:49:43.188Z,53.90
2022-08-27T05:54:47.054Z,53.70
2022-08-27T06:00:09.690Z,54.00
2022-08-27T06:05:20.139Z,54.20
2022-08-27T06:10:23.882Z,54.30
2022-08-27T06:15:29.453Z,54.20
2022-08-27T06:20:33.362Z,54.30
2022-08-27T06:25:42.588Z,54.30
2022-08-27T06:30:47.598Z,55.00
2022-08-27T06:35:51.227Z,54.60
2022-08-27T06:40:55.930Z,55.30
2022-08-27T06:46:05.119Z,54.60
2022-08-27T06:51:14.706Z,54.70
2022-08-27T06:56:19.376Z,54.70
2022-08-27T07:01:28.201Z,54.70
2022-08-27T07:06:35.659Z,54.80
2022-08-27T07:11:40.033Z,54.60
2022-08-27T07:16:45.355Z,54.70
2022-08-27T07:21:52.032Z,54.90
2022-08-27T07:26:55.636Z,54.70
2022-08-27T07:32:00.557Z,54.80
2022-08-27T07:37:04.264Z,54.80
2022-08-27T07:42:25.665Z,55.00
2022-08-27T07:47:30.591Z,54.80
2022-08-27T07:52:34.750Z,54.90
2022-08-27T07:57:38.873Z,54.80
2022-08-27T08:02:47.337Z,55.10
2022-08-27T08:07:52.055Z,54.80
2022-08-27T08:12:55.713Z,54.70
2022-08-27T08:18:00.633Z,54.60
2022-08-27T08:23:04.211Z,54.50
2022-08-27T08:28:13.396Z,54.50
2022-08-27T08:33:18.473Z,54.50
2022-08-27T08:38:22.547Z,54.50
2022-08-27T08:43:35.761Z,54.60
2022-08-27T08:48:47.945Z,54.60
2022-08-27T08:53:57.999Z,54.80
2022-08-27T08:59:09.561Z,54.60
2022-08-27T09:04:15.006Z,54.80
2022-08-27T09:09:24.391Z,54.70
2022-08-27T09:14:38.876Z,54.60
2022-08-27T09:19:45.030Z,54.60
2022-08-27T09:25:03.351Z,54.60
2022-08-27T09:30:12.930Z,54.50
2022-08-27T09:35:18.204Z,54.40
2022-08-27T09:40:34.994Z,54.20
2022-08-27T09:45:38.892Z,53.80
2022-08-27T09:50:49.518Z,53.60
2022-08-27T09:55:58.159Z,53.40
2022-08-27T10:01:07.959Z,53.20
2022-08-27T10:06:13.925Z,53.00
2022-08-27T10:11:29.225Z,53.50
2022-08-27T10:16:55.706Z,52.60
2022-08-27T10:22:15.686Z,52.40
2022-08-27T10:27:31.420Z,52.60
2022-08-27T10:33:03.993Z,52.30
2022-08-27T10:38:19.609Z,51.90
2022-08-27T10:44:20.996Z,51.90
2022-08-27T10:49:34.876Z,51.80
2022-08-27T10:54:46.140Z,51.80
2022-08-27T11:00:00.218Z,52.10
2022-08-27T11:05:18.782Z,52.10
2022-08-27T11:10:31.028Z,51.70
2022-08-27T11:15:38.856Z,52.30
2022-08-27T11:20:50.938Z,52.30
2022-08-27T11:26:02.492Z,52.50
2022-08-27T11:31:15.252Z,52.10
2022-08-27T11:37:07.953Z,52.30
2022-08-27T11:42:21.957Z,52.80
2022-08-27T11:47:27.555Z,53.00
2022-08-27T11:52:37.799Z,53.20
2022-08-27T11:57:45.107Z,53.30
2022-08-27T12:03:01.056Z,53.50
2022-08-27T12:08:21.300Z,53.70
2022-08-27T12:13:38.455Z,53.80
2022-08-27T12:19:14.565Z,53.80
2022-08-27T12:24:45.489Z,53.90
2022-08-27T12:29:54.756Z,54.10
2022-08-27T12:35:12.371Z,54.20
2022-08-27T12:40:25.941Z,54.20
2022-08-27T12:45:31.180Z,54.20
2022-08-27T12:50:34.860Z,54.30
2022-08-27T12:56:19.122Z,54.30
2022-08-27T13:01:51.130Z,54.20
2022-08-27T13:06:55.506Z,54.30
2022-08-27T13:12:01.994Z,54.30
2022-08-27T13:17:13.271Z,54.20
2022-08-27T13:22:24.879Z,54.20
2022-08-27T13:27:37.809Z,54.20
2022-08-27T13:32:42.985Z,54.30
2022-08-27T13:37:50.855Z,54.50
2022-08-27T13:42:54.597Z,54.40
2022-08-27T13:48:02.852Z,54.30
2022-08-27T13:53:28.807Z,54.30
2022-08-27T13:58:35.896Z,54.30
2022-08-27T14:03:51.822Z,54.10
2022-08-27T14:08:55.619Z,54.20
2022-08-27T14:13:59.347Z,54.20
2022-08-27T14:19:15.016Z,54.10
2022-08-27T14:24:18.536Z,54.00
2022-08-27T14:29:23.302Z,53.90
2022-08-27T14:34:28.629Z,54.00
2022-08-27T14:39:32.158Z,54.10
2022-08-27T14:44:35.647Z,54.10
2022-08-27T14:49:45.131Z,54.20
2022-08-27T14:54:48.905Z,54.20
2022-08-27T14:59:52.464Z,54.30
2022-08-27T15:04:57.514Z,54.30
2022-08-27T15:10:01.282Z,54.20
2022-08-27T15:15:06.719Z,54.20
2022-08-27T15:20:20.107Z,54.30
2022-08-27T15:25:24.769Z,54.20
2022-08-27T15:30:30.448Z,54.20
2022-08-27T15:35:35.880Z,54.20
2022-08-27T15:40:39.514Z,54.10
2022-08-27T15:45:43.357Z,54.10
2022-08-27T15:50:48.718Z,54.10
2022-08-27T15:55:52.398Z,54.10
2022-08-27T16:01:01.956Z,53.90
2022-08-27T16:06:08.875Z,54.00
2022-08-27T16:11:12.927Z,53.90
2022-08-27T16:16:18.159Z,53.90
2022-08-27T16:21:23.478Z,53.90
2022-08-27T16:26:27.953Z,53.80
2022-08-27T16:31:32.790Z,54.00
2022-08-27T16:36:37.872Z,53.90
2022-08-27T16:41:42.213Z,53.80
2022-08-27T16:46:45.900Z,53.80
2022-08-27T16:51:52.294Z,53.80
2022-08-27T16:56:56.677Z,53.80
2022-08-27T17:02:00.481Z,53.90
2022-08-27T17:07:05.761Z,53.90
2022-08-27T17:12:10.119Z,53.90
2022-08-27T17:17:13.803Z,54.00
2022-08-27T17:22:18.800Z,53.90
2022-08-27T17:27:22.437Z,54.00
2022-08-27T17:32:26.221Z,54.10
2022-08-27T17:37:31.613Z,54.00
2022-08-27T17:42:35.441Z,54.10
2022-08-27T17:47:38.997Z,54.10
2022-08-27T17:52:43.939Z,54.10
2022-08-27T17:57:47.467Z,54.00
2022-08-27T18:02:53.686Z,54.10
2022-08-27T18:07:58.604Z,54.10
2022-08-27T18:13:02.206Z,54.10
2022-08-27T18:18:07.055Z,54.10
2022-08-27T18:23:14.727Z,54.20
2022-08-27T18:28:22.277Z,54.20
2022-08-27T18:33:25.867Z,54.40
2022-08-27T18:38:32.664Z,54.30
2022-08-27T18:43:36.372Z,54.60
2022-08-27T18:48:40.723Z,54.90
2022-08-27T18:53:47.429Z,55.00
2022-08-27T18:58:51.131Z,54.80
2022-08-27T19:03:56.690Z,55.00
2022-08-27T19:09:02.248Z,54.70
2022-08-27T19:14:05.900Z,54.50
2022-08-27T19:19:10.546Z,54.50
2022-08-27T19:24:15.431Z,54.40
2022-08-27T19:29:19.903Z,54.50
2022-08-27T19:34:25.279Z,54.60
2022-08-27T19:39:30.684Z,54.90
2022-08-27T19:44:34.422Z,54.70
2022-08-27T19:49:40.267Z,54.70
2022-08-27T19:55:12.179Z,55.00
2022-08-27T20:00:13.974Z,55.00
2022-08-27T20:05:19.212Z,55.20
2022-08-27T20:10:36.087Z,55.40
2022-08-27T20:15:42.493Z,55.30
2022-08-27T20:20:49.129Z,55.40
2022-08-27T20:25:57.849Z,55.50
2022-08-27T20:31:04.139Z,55.50
2022-08-27T20:36:09.289Z,55.40
2022-08-27T20:41:14.269Z,55.30
2022-08-27T20:46:23.983Z,55.40
2022-08-27T20:51:28.868Z,55.40
2022-08-27T20:56:33.954Z,55.40
2022-08-27T21:01:37.959Z,55.50
2022-08-27T21:06:41.666Z,55.50
2022-08-27T21:11:46.723Z,55.60
2022-08-27T21:16:50.399Z,55.40
2022-08-27T21:21:54.484Z,55.40
2022-08-27T21:26:59.664Z,55.30
2022-08-27T21:32:03.306Z,55.40
2022-08-27T21:37:07.293Z,55.40
2022-08-27T21:42:15.494Z,55.40
2022-08-27T21:47:19.223Z,55.40
2022-08-27T21:52:23.834Z,55.40
2022-08-27T21:57:29.083Z,55.70
2022-08-27T22:02:40.748Z,55.30
2022-08-27T22:07:44.511Z,55.40
2022-08-27T22:12:49.930Z,55.40
2022-08-27T22:17:56.670Z,55.20
2022-08-27T22:23:01.136Z,55.20
2022-08-27T22:28:07.293Z,55.40
2022-08-27T22:33:10.885Z,55.50
2022-08-27T22:38:14.570Z,55.50
2022-08-27T22:43:20.158Z,55.50
2022-08-27T22:48:23.896Z,55.50
2022-08-27T22:53:27.647Z,55.40
2022-08-27T22:58:32.627Z,55.50
2022-08-27T23:03:36.460Z,55.50
2022-08-27T23:08:40.308Z,55.60
2022-08-27T23:13:45.290Z,55.60
2022-08-27T23:18:48.985Z,55.60
2022-08-27T23:23:52.637Z,55.70
2022-08-27T23:28:57.579Z,55.50
2022-08-27T23:34:01.480Z,55.50
2022-08-27T23:39:05.244Z,55.50
2022-08-27T23:44:10.184Z,55.40
2022-08-27T23:49:14.114Z,55.50
2022-08-27T23:54:17.829Z,55.40
2022-08-27T23:59:22.880Z,55.50
